sensor_id;sensor_type;location;lat;lon;timestamp;P1;durP1;ratioP1;P2;durP2;ratioP2
40204;SDS011;26963;42.666;23.366;2022-12-18T00:01:13;7.63;;;6.22;;
40204;SDS011;26963;42.666;23.366;2022-12-18T00:03:44;10.57;;;7.95;;
40204;SDS011;26963;42.666;23.366;2022-12-18T00:06:10;8.02;;;6.28;;
40204;SDS011;26963;42.666;23.366;2022-12-18T00:08:36;7.97;;;5.70;;
40204;SDS011;26963;42.666;23.366;2022-12-18T00:11:05;9.07;;;5.30;;
40204;SDS011;26963;42.666;23.366;2022-12-18T00:13:32;11.15;;;8.25;;
40204;SDS011;26963;42.666;23.366;2022-12-18T00:16:02;12.30;;;9.32;;
40204;SDS011;26963;42.666;23.366;2022-12-18T00:18:30;9.97;;;8.27;;
40204;SDS011;26963;42.666;23.366;2022-12-18T00:20:58;10.38;;;7.68;;
40204;SDS011;26963;42.666;23.366;2022-12-18T00:23:25;7.30;;;5.60;;
40204;SDS011;26963;42.666;23.366;2022-12-18T00:25:51;13.18;;;10.80;;
40204;SDS011;26963;42.666;23.366;2022-12-18T00:28:17;11.35;;;8.82;;
40204;SDS011;26963;42.666;23.366;2022-12-18T00:30:42;8.27;;;5.95;;
40204;SDS011;26963;42.666;23.366;2022-12-18T00:33:08;8.07;;;6.32;;
40204;SDS011;26963;42.666;23.366;2022-12-18T00:35:33;7.97;;;6.28;;
40204;SDS011;26963;42.666;23.366;2022-12-18T00:37:59;7.25;;;5.88;;
40204;SDS011;26963;42.666;23.366;2022-12-18T00:40:24;7.53;;;6.15;;
40204;SDS011;26963;42.666;23.366;2022-12-18T00:42:50;8.60;;;6.45;;
40204;SDS011;26963;42.666;23.366;2022-12-18T00:45:24;9.10;;;6.88;;
40204;SDS011;26963;42.666;23.366;2022-12-18T00:47:51;8.75;;;6.88;;
40204;SDS011;26963;42.666;23.366;2022-12-18T00:50:17;8.00;;;6.30;;
40204;SDS011;26963;42.666;23.366;2022-12-18T00:52:43;7.18;;;6.03;;
40204;SDS011;26963;42.666;23.366;2022-12-18T00:55:09;7.78;;;6.20;;
40204;SDS011;26963;42.666;23.366;2022-12-18T00:57:35;8.07;;;6.30;;
40204;SDS011;26963;42.666;23.366;2022-12-18T01:00:01;9.43;;;5.85;;
40204;SDS011;26963;42.666;23.366;2022-12-18T01:02:27;7.07;;;5.50;;
40204;SDS011;26963;42.666;23.366;2022-12-18T01:04:52;7.30;;;5.93;;
40204;SDS011;26963;42.666;23.366;2022-12-18T01:07:18;8.05;;;5.65;;
40204;SDS011;26963;42.666;23.366;2022-12-18T01:09:43;8.55;;;6.07;;
40204;SDS011;26963;42.666;23.366;2022-12-18T01:12:09;8.95;;;5.70;;
40204;SDS011;26963;42.666;23.366;2022-12-18T01:14:34;7.60;;;6.05;;
40204;SDS011;26963;42.666;23.366;2022-12-18T01:17:01;8.73;;;6.00;;
40204;SDS011;26963;42.666;23.366;2022-12-18T01:19:28;6.53;;;5.32;;
40204;SDS011;26963;42.666;23.366;2022-12-18T01:21:54;8.02;;;6.35;;
40204;SDS011;26963;42.666;23.366;2022-12-18T01:24:20;9.85;;;8.18;;
40204;SDS011;26963;42.666;23.366;2022-12-18T01:26:45;9.07;;;7.28;;
40204;SDS011;26963;42.666;23.366;2022-12-18T01:29:11;13.20;;;10.55;;
40204;SDS011;26963;42.666;23.366;2022-12-18T01:31:36;10.43;;;8.55;;
40204;SDS011;26963;42.666;23.366;2022-12-18T01:34:02;10.35;;;7.85;;
40204;SDS011;26963;42.666;23.366;2022-12-18T01:36:31;8.77;;;6.90;;
40204;SDS011;26963;42.666;23.366;2022-12-18T01:38:59;9.60;;;7.90;;
40204;SDS011;26963;42.666;23.366;2022-12-18T01:41:27;9.73;;;7.50;;
40204;SDS011;26963;42.666;23.366;2022-12-18T01:49:54;9.27;;;7.70;;
40204;SDS011;26963;42.666;23.366;2022-12-18T01:52:20;9.68;;;7.70;;
40204;SDS011;26963;42.666;23.366;2022-12-18T01:54:47;11.02;;;8.82;;
40204;SDS011;26963;42.666;23.366;2022-12-18T01:57:14;10.43;;;7.53;;
40204;SDS011;26963;42.666;23.366;2022-12-18T01:59:40;11.40;;;8.02;;
40204;SDS011;26963;42.666;23.366;2022-12-18T02:02:10;10.95;;;7.93;;
40204;SDS011;26963;42.666;23.366;2022-12-18T02:04:36;8.85;;;7.32;;
40204;SDS011;26963;42.666;23.366;2022-12-18T02:09:55;10.07;;;7.90;;
40204;SDS011;26963;42.666;23.366;2022-12-18T02:12:24;10.10;;;7.53;;
40204;SDS011;26963;42.666;23.366;2022-12-18T02:18:11;8.90;;;7.40;;
40204;SDS011;26963;42.666;23.366;2022-12-18T02:23:06;9.23;;;6.80;;
40204;SDS011;26963;42.666;23.366;2022-12-18T02:28:23;8.70;;;6.70;;
40204;SDS011;26963;42.666;23.366;2022-12-18T02:30:52;9.00;;;6.03;;
40204;SDS011;26963;42.666;23.366;2022-12-18T02:33:21;8.35;;;6.38;;
40204;SDS011;26963;42.666;23.366;2022-12-18T02:35:49;8.93;;;7.03;;
40204;SDS011;26963;42.666;23.366;2022-12-18T02:38:17;10.48;;;6.63;;
40204;SDS011;26963;42.666;23.366;2022-12-18T02:40:43;8.07;;;6.38;;
40204;SDS011;26963;42.666;23.366;2022-12-18T02:43:10;8.80;;;6.85;;
40204;SDS011;26963;42.666;23.366;2022-12-18T02:45:48;10.48;;;7.20;;
40204;SDS011;26963;42.666;23.366;2022-12-18T02:48:17;8.52;;;6.70;;
40204;SDS011;26963;42.666;23.366;2022-12-18T02:50:51;9.40;;;6.20;;
40204;SDS011;26963;42.666;23.366;2022-12-18T02:53:37;7.60;;;5.93;;
40204;SDS011;26963;42.666;23.366;2022-12-18T02:56:13;9.10;;;6.50;;
40204;SDS011;26963;42.666;23.366;2022-12-18T03:01:25;11.23;;;7.00;;
40204;SDS011;26963;42.666;23.366;2022-12-18T03:05:00;8.63;;;6.60;;
40204;SDS011;26963;42.666;23.366;2022-12-18T03:07:19;8.57;;;7.03;;
40204;SDS011;26963;42.666;23.366;2022-12-18T03:09:51;11.05;;;7.30;;
40204;SDS011;26963;42.666;23.366;2022-12-18T03:12:21;8.63;;;6.57;;
40204;SDS011;26963;42.666;23.366;2022-12-18T03:15:10;7.78;;;6.60;;
40204;SDS011;26963;42.666;23.366;2022-12-18T03:17:35;9.13;;;6.35;;
40204;SDS011;26963;42.666;23.366;2022-12-18T03:20:09;9.80;;;7.05;;
40204;SDS011;26963;42.666;23.366;2022-12-18T03:22:39;8.18;;;6.43;;
40204;SDS011;26963;42.666;23.366;2022-12-18T03:25:08;7.90;;;6.28;;
40204;SDS011;26963;42.666;23.366;2022-12-18T03:27:36;7.95;;;6.18;;
40204;SDS011;26963;42.666;23.366;2022-12-18T03:30:07;8.27;;;6.28;;
40204;SDS011;26963;42.666;23.366;2022-12-18T03:32:38;8.60;;;6.30;;
40204;SDS011;26963;42.666;23.366;2022-12-18T03:35:05;9.20;;;6.70;;
40204;SDS011;26963;42.666;23.366;2022-12-18T03:37:33;8.38;;;6.72;;
40204;SDS011;26963;42.666;23.366;2022-12-18T03:39:59;9.52;;;6.97;;
40204;SDS011;26963;42.666;23.366;2022-12-18T03:56:21;9.32;;;6.97;;
40204;SDS011;26963;42.666;23.366;2022-12-18T03:58:50;9.75;;;7.13;;
40204;SDS011;26963;42.666;23.366;2022-12-18T04:01:19;9.77;;;6.95;;
40204;SDS011;26963;42.666;23.366;2022-12-18T04:03:48;9.57;;;7.03;;
40204;SDS011;26963;42.666;23.366;2022-12-18T04:06:15;9.00;;;6.82;;
40204;SDS011;26963;42.666;23.366;2022-12-18T04:08:42;8.35;;;6.45;;
40204;SDS011;26963;42.666;23.366;2022-12-18T04:11:09;9.15;;;6.65;;
40204;SDS011;26963;42.666;23.366;2022-12-18T04:13:36;10.73;;;7.25;;
40204;SDS011;26963;42.666;23.366;2022-12-18T04:16:02;11.57;;;7.00;;
40204;SDS011;26963;42.666;23.366;2022-12-18T04:18:28;10.80;;;7.63;;
40204;SDS011;26963;42.666;23.366;2022-12-18T04:20:54;9.95;;;7.30;;
40204;SDS011;26963;42.666;23.366;2022-12-18T04:23:19;9.52;;;7.03;;
40204;SDS011;26963;42.666;23.366;2022-12-18T04:25:45;9.20;;;6.82;;
40204;SDS011;26963;42.666;23.366;2022-12-18T04:28:12;9.80;;;7.45;;
40204;SDS011;26963;42.666;23.366;2022-12-18T04:30:38;11.32;;;8.45;;
40204;SDS011;26963;42.666;23.366;2022-12-18T04:33:03;9.82;;;8.02;;
40204;SDS011;26963;42.666;23.366;2022-12-18T04:35:33;9.88;;;7.93;;
40204;SDS011;26963;42.666;23.366;2022-12-18T04:37:58;11.57;;;8.10;;
40204;SDS011;26963;42.666;23.366;2022-12-18T04:40:23;10.75;;;8.13;;
40204;SDS011;26963;42.666;23.366;2022-12-18T04:42:49;11.93;;;9.02;;
40204;SDS011;26963;42.666;23.366;2022-12-18T04:45:14;11.98;;;8.93;;
40204;SDS011;26963;42.666;23.366;2022-12-18T04:47:40;11.98;;;8.88;;
40204;SDS011;26963;42.666;23.366;2022-12-18T04:50:05;11.20;;;8.52;;
40204;SDS011;26963;42.666;23.366;2022-12-18T04:52:31;11.93;;;8.68;;
40204;SDS011;26963;42.666;23.366;2022-12-18T04:54:57;13.30;;;9.02;;
40204;SDS011;26963;42.666;23.366;2022-12-18T04:57:22;12.30;;;9.13;;
40204;SDS011;26963;42.666;23.366;2022-12-18T04:59:48;12.93;;;9.45;;
40204;SDS011;26963;42.666;23.366;2022-12-18T05:02:13;11.60;;;8.93;;
40204;SDS011;26963;42.666;23.366;2022-12-18T05:04:39;18.80;;;13.38;;
40204;SDS011;26963;42.666;23.366;2022-12-18T05:07:04;13.43;;;9.95;;
40204;SDS011;26963;42.666;23.366;2022-12-18T05:09:30;14.85;;;10.50;;
40204;SDS011;26963;42.666;23.366;2022-12-18T05:11:55;13.68;;;10.15;;
40204;SDS011;26963;42.666;23.366;2022-12-18T05:14:21;14.02;;;11.75;;
40204;SDS011;26963;42.666;23.366;2022-12-18T05:16:46;13.40;;;10.77;;
40204;SDS011;26963;42.666;23.366;2022-12-18T05:19:12;46.20;;;29.80;;
40204;SDS011;26963;42.666;23.366;2022-12-18T05:21:37;16.00;;;11.48;;
40204;SDS011;26963;42.666;23.366;2022-12-18T05:24:03;14.52;;;11.02;;
40204;SDS011;26963;42.666;23.366;2022-12-18T05:26:29;15.48;;;11.27;;
40204;SDS011;26963;42.666;23.366;2022-12-18T05:28:54;14.75;;;10.40;;
40204;SDS011;26963;42.666;23.366;2022-12-18T05:31:20;15.43;;;11.70;;
40204;SDS011;26963;42.666;23.366;2022-12-18T05:33:45;14.88;;;11.20;;
40204;SDS011;26963;42.666;23.366;2022-12-18T05:36:11;13.82;;;11.00;;
40204;SDS011;26963;42.666;23.366;2022-12-18T05:38:37;14.95;;;11.65;;
40204;SDS011;26963;42.666;23.366;2022-12-18T05:41:03;15.27;;;11.52;;
40204;SDS011;26963;42.666;23.366;2022-12-18T05:43:30;15.45;;;11.23;;
40204;SDS011;26963;42.666;23.366;2022-12-18T05:45:56;17.00;;;12.07;;
40204;SDS011;26963;42.666;23.366;2022-12-18T05:48:22;17.25;;;11.98;;
40204;SDS011;26963;42.666;23.366;2022-12-18T05:50:49;31.50;;;23.20;;
40204;SDS011;26963;42.666;23.366;2022-12-18T05:53:16;16.60;;;12.13;;
40204;SDS011;26963;42.666;23.366;2022-12-18T05:55:44;17.00;;;12.63;;
40204;SDS011;26963;42.666;23.366;2022-12-18T05:58:11;15.68;;;11.45;;
40204;SDS011;26963;42.666;23.366;2022-12-18T06:00:39;15.48;;;12.07;;
40204;SDS011;26963;42.666;23.366;2022-12-18T06:03:08;15.18;;;12.15;;
40204;SDS011;26963;42.666;23.366;2022-12-18T06:05:38;18.45;;;12.48;;
40204;SDS011;26963;42.666;23.366;2022-12-18T06:08:05;17.52;;;12.82;;
40204;SDS011;26963;42.666;23.366;2022-12-18T06:10:31;15.43;;;12.43;;
40204;SDS011;26963;42.666;23.366;2022-12-18T06:12:57;17.17;;;11.98;;
40204;SDS011;26963;42.666;23.366;2022-12-18T06:15:23;19.83;;;13.80;;
40204;SDS011;26963;42.666;23.366;2022-12-18T06:17:49;16.85;;;12.95;;
40204;SDS011;26963;42.666;23.366;2022-12-18T06:20:15;16.33;;;12.35;;
40204;SDS011;26963;42.666;23.366;2022-12-18T06:22:40;18.42;;;13.43;;
40204;SDS011;26963;42.666;23.366;2022-12-18T06:25:06;17.60;;;12.63;;
40204;SDS011;26963;42.666;23.366;2022-12-18T06:27:32;18.33;;;13.40;;
40204;SDS011;26963;42.666;23.366;2022-12-18T06:29:58;19.52;;;13.75;;
40204;SDS011;26963;42.666;23.366;2022-12-18T06:32:25;17.98;;;13.23;;
40204;SDS011;26963;42.666;23.366;2022-12-18T06:34:50;15.88;;;12.63;;
40204;SDS011;26963;42.666;23.366;2022-12-18T06:37:16;17.80;;;13.05;;
40204;SDS011;26963;42.666;23.366;2022-12-18T06:39:41;17.17;;;12.95;;
40204;SDS011;26963;42.666;23.366;2022-12-18T06:42:07;19.42;;;14.27;;
40204;SDS011;26963;42.666;23.366;2022-12-18T06:44:32;20.55;;;12.98;;
40204;SDS011;26963;42.666;23.366;2022-12-18T06:46:58;17.95;;;13.77;;
40204;SDS011;26963;42.666;23.366;2022-12-18T06:49:23;19.55;;;14.73;;
40204;SDS011;26963;42.666;23.366;2022-12-18T06:51:49;19.77;;;15.38;;
40204;SDS011;26963;42.666;23.366;2022-12-18T06:54:14;19.85;;;14.85;;
40204;SDS011;26963;42.666;23.366;2022-12-18T06:56:40;17.55;;;13.82;;
40204;SDS011;26963;42.666;23.366;2022-12-18T06:59:05;17.95;;;12.20;;
40204;SDS011;26963;42.666;23.366;2022-12-18T07:01:31;19.58;;;13.50;;
40204;SDS011;26963;42.666;23.366;2022-12-18T07:03:57;20.70;;;14.60;;
40204;SDS011;26963;42.666;23.366;2022-12-18T07:06:23;17.98;;;13.82;;
40204;SDS011;26963;42.666;23.366;2022-12-18T07:08:50;16.60;;;13.38;;
40204;SDS011;26963;42.666;23.366;2022-12-18T07:11:17;17.33;;;14.10;;
40204;SDS011;26963;42.666;23.366;2022-12-18T07:13:43;17.35;;;13.27;;
40204;SDS011;26963;42.666;23.366;2022-12-18T07:16:10;19.55;;;13.05;;
40204;SDS011;26963;42.666;23.366;2022-12-18T07:18:37;17.30;;;12.73;;
40204;SDS011;26963;42.666;23.366;2022-12-18T07:21:07;18.67;;;12.82;;
40204;SDS011;26963;42.666;23.366;2022-12-18T07:23:35;18.00;;;13.55;;
40204;SDS011;26963;42.666;23.366;2022-12-18T07:26:04;18.48;;;13.60;;
40204;SDS011;26963;42.666;23.366;2022-12-18T07:28:32;18.45;;;14.48;;
40204;SDS011;26963;42.666;23.366;2022-12-18T07:30:58;17.85;;;13.95;;
40204;SDS011;26963;42.666;23.366;2022-12-18T07:33:28;19.65;;;14.25;;
40204;SDS011;26963;42.666;23.366;2022-12-18T07:35:53;19.83;;;14.80;;
40204;SDS011;26963;42.666;23.366;2022-12-18T07:38:19;19.00;;;13.77;;
40204;SDS011;26963;42.666;23.366;2022-12-18T07:40:44;21.80;;;15.15;;
40204;SDS011;26963;42.666;23.366;2022-12-18T07:43:10;20.83;;;16.15;;
40204;SDS011;26963;42.666;23.366;2022-12-18T07:45:35;21.00;;;14.65;;
40204;SDS011;26963;42.666;23.366;2022-12-18T07:48:01;18.85;;;14.55;;
40204;SDS011;26963;42.666;23.366;2022-12-18T07:50:26;22.08;;;15.85;;
40204;SDS011;26963;42.666;23.366;2022-12-18T07:52:52;22.50;;;16.58;;
40204;SDS011;26963;42.666;23.366;2022-12-18T07:55:17;20.10;;;15.70;;
40204;SDS011;26963;42.666;23.366;2022-12-18T07:57:43;24.02;;;16.50;;
40204;SDS011;26963;42.666;23.366;2022-12-18T08:00:09;26.55;;;17.33;;
40204;SDS011;26963;42.666;23.366;2022-12-18T08:02:35;24.67;;;17.27;;
40204;SDS011;26963;42.666;23.366;2022-12-18T08:05:00;24.35;;;18.27;;
40204;SDS011;26963;42.666;23.366;2022-12-18T08:07:26;24.23;;;18.45;;
40204;SDS011;26963;42.666;23.366;2022-12-18T08:09:51;22.85;;;17.17;;
40204;SDS011;26963;42.666;23.366;2022-12-18T08:12:17;24.95;;;17.88;;
40204;SDS011;26963;42.666;23.366;2022-12-18T08:14:42;23.48;;;17.33;;
40204;SDS011;26963;42.666;23.366;2022-12-18T08:17:08;36.30;;;26.05;;
40204;SDS011;26963;42.666;23.366;2022-12-18T08:19:33;25.02;;;18.77;;
40204;SDS011;26963;42.666;23.366;2022-12-18T08:21:59;22.15;;;16.98;;
40204;SDS011;26963;42.666;23.366;2022-12-18T08:24:24;24.30;;;16.90;;
40204;SDS011;26963;42.666;23.366;2022-12-18T08:26:50;21.25;;;16.15;;
40204;SDS011;26963;42.666;23.366;2022-12-18T08:29:16;23.15;;;16.92;;
40204;SDS011;26963;42.666;23.366;2022-12-18T08:31:42;21.08;;;16.23;;
40204;SDS011;26963;42.666;23.366;2022-12-18T08:34:07;21.85;;;16.15;;
40204;SDS011;26963;42.666;23.366;2022-12-18T08:36:33;23.40;;;17.58;;
40204;SDS011;26963;42.666;23.366;2022-12-18T08:38:58;25.25;;;17.00;;
40204;SDS011;26963;42.666;23.366;2022-12-18T08:41:24;23.45;;;17.50;;
40204;SDS011;26963;42.666;23.366;2022-12-18T08:43:49;24.60;;;17.98;;
40204;SDS011;26963;42.666;23.366;2022-12-18T08:46:38;22.20;;;17.20;;
40204;SDS011;26963;42.666;23.366;2022-12-18T08:49:05;23.23;;;16.95;;
40204;SDS011;26963;42.666;23.366;2022-12-18T08:51:32;24.23;;;17.40;;
40204;SDS011;26963;42.666;23.366;2022-12-18T08:53:58;23.48;;;17.55;;
40204;SDS011;26963;42.666;23.366;2022-12-18T08:56:24;22.70;;;16.35;;
40204;SDS011;26963;42.666;23.366;2022-12-18T08:58:53;26.75;;;19.10;;
40204;SDS011;26963;42.666;23.366;2022-12-18T09:01:19;26.50;;;19.95;;
40204;SDS011;26963;42.666;23.366;2022-12-18T09:03:45;24.83;;;17.23;;
40204;SDS011;26963;42.666;23.366;2022-12-18T09:06:13;26.45;;;17.63;;
40204;SDS011;26963;42.666;23.366;2022-12-18T09:08:40;23.98;;;16.25;;
40204;SDS011;26963;42.666;23.366;2022-12-18T09:11:11;24.33;;;16.40;;
40204;SDS011;26963;42.666;23.366;2022-12-18T09:13:38;21.05;;;15.98;;
40204;SDS011;26963;42.666;23.366;2022-12-18T09:16:04;22.58;;;16.52;;
40204;SDS011;26963;42.666;23.366;2022-12-18T09:18:29;21.95;;;15.95;;
40204;SDS011;26963;42.666;23.366;2022-12-18T09:20:55;24.38;;;16.60;;
40204;SDS011;26963;42.666;23.366;2022-12-18T09:23:21;21.10;;;16.20;;
40204;SDS011;26963;42.666;23.366;2022-12-18T09:25:46;21.40;;;14.68;;
40204;SDS011;26963;42.666;23.366;2022-12-18T09:28:18;21.58;;;15.60;;
40204;SDS011;26963;42.666;23.366;2022-12-18T09:30:48;20.27;;;14.73;;
40204;SDS011;26963;42.666;23.366;2022-12-18T09:33:14;20.77;;;14.85;;
40204;SDS011;26963;42.666;23.366;2022-12-18T09:35:42;20.48;;;15.18;;
40204;SDS011;26963;42.666;23.366;2022-12-18T09:38:12;23.48;;;15.50;;
40204;SDS011;26963;42.666;23.366;2022-12-18T09:40:44;24.97;;;16.57;;
40204;SDS011;26963;42.666;23.366;2022-12-18T09:43:14;22.38;;;16.38;;
40204;SDS011;26963;42.666;23.366;2022-12-18T09:45:48;21.20;;;15.40;;
40204;SDS011;26963;42.666;23.366;2022-12-18T09:48:23;23.90;;;16.48;;
40204;SDS011;26963;42.666;23.366;2022-12-18T09:50:55;23.92;;;15.80;;
40204;SDS011;26963;42.666;23.366;2022-12-18T09:53:28;20.63;;;15.30;;
40204;SDS011;26963;42.666;23.366;2022-12-18T09:55:58;21.45;;;14.98;;
40204;SDS011;26963;42.666;23.366;2022-12-18T10:01:37;21.05;;;15.07;;
40204;SDS011;26963;42.666;23.366;2022-12-18T10:06:29;23.95;;;15.73;;
40204;SDS011;26963;42.666;23.366;2022-12-18T10:14:44;19.23;;;14.23;;
40204;SDS011;26963;42.666;23.366;2022-12-18T10:19:59;22.45;;;16.27;;
40204;SDS011;26963;42.666;23.366;2022-12-18T10:25:14;20.35;;;15.32;;
40204;SDS011;26963;42.666;23.366;2022-12-18T10:27:47;23.27;;;16.58;;
40204;SDS011;26963;42.666;23.366;2022-12-18T10:30:17;18.45;;;13.82;;
40204;SDS011;26963;42.666;23.366;2022-12-18T10:32:44;19.10;;;14.77;;
40204;SDS011;26963;42.666;23.366;2022-12-18T10:35:17;19.85;;;14.57;;
40204;SDS011;26963;42.666;23.366;2022-12-18T10:40:27;19.83;;;15.38;;
40204;SDS011;26963;42.666;23.366;2022-12-18T10:43:09;22.95;;;16.08;;
40204;SDS011;26963;42.666;23.366;2022-12-18T10:45:37;22.23;;;16.08;;
40204;SDS011;26963;42.666;23.366;2022-12-18T10:48:04;22.38;;;16.45;;
40204;SDS011;26963;42.666;23.366;2022-12-18T10:50:42;23.52;;;16.25;;
40204;SDS011;26963;42.666;23.366;2022-12-18T10:53:16;24.33;;;16.63;;
40204;SDS011;26963;42.666;23.366;2022-12-18T10:55:45;21.02;;;16.00;;
40204;SDS011;26963;42.666;23.366;2022-12-18T11:01:10;21.75;;;15.98;;
40204;SDS011;26963;42.666;23.366;2022-12-18T11:03:46;21.67;;;15.40;;
40204;SDS011;26963;42.666;23.366;2022-12-18T11:06:24;22.13;;;15.88;;
40204;SDS011;26963;42.666;23.366;2022-12-18T11:08:57;23.42;;;16.65;;
40204;SDS011;26963;42.666;23.366;2022-12-18T11:11:28;21.77;;;16.25;;
40204;SDS011;26963;42.666;23.366;2022-12-18T11:16:30;18.85;;;15.25;;
40204;SDS011;26963;42.666;23.366;2022-12-18T11:20:03;21.00;;;15.70;;
40204;SDS011;26963;42.666;23.366;2022-12-18T11:21:56;20.48;;;14.73;;
40204;SDS011;26963;42.666;23.366;2022-12-18T11:24:32;19.95;;;13.43;;
40204;SDS011;26963;42.666;23.366;2022-12-18T11:27:02;20.23;;;13.88;;
40204;SDS011;26963;42.666;23.366;2022-12-18T11:29:32;18.67;;;13.77;;
40204;SDS011;26963;42.666;23.366;2022-12-18T11:34:39;21.38;;;14.10;;
40204;SDS011;26963;42.666;23.366;2022-12-18T11:37:07;20.70;;;14.40;;
40204;SDS011;26963;42.666;23.366;2022-12-18T11:39:42;17.98;;;14.07;;
40204;SDS011;26963;42.666;23.366;2022-12-18T11:42:16;20.17;;;14.80;;
40204;SDS011;26963;42.666;23.366;2022-12-18T11:49:50;22.90;;;16.17;;
40204;SDS011;26963;42.666;23.366;2022-12-18T11:52:22;19.58;;;15.13;;
40204;SDS011;26963;42.666;23.366;2022-12-18T11:55:00;22.42;;;15.70;;
40204;SDS011;26963;42.666;23.366;2022-12-18T11:57:54;19.38;;;14.48;;
40204;SDS011;26963;42.666;23.366;2022-12-18T12:00:25;25.75;;;14.15;;
40204;SDS011;26963;42.666;23.366;2022-12-18T12:05:34;18.95;;;14.15;;
40204;SDS011;26963;42.666;23.366;2022-12-18T12:10:48;20.70;;;14.88;;
40204;SDS011;26963;42.666;23.366;2022-12-18T12:21:42;22.52;;;15.23;;
40204;SDS011;26963;42.666;23.366;2022-12-18T12:24:22;21.65;;;15.95;;
40204;SDS011;26963;42.666;23.366;2022-12-18T12:27:01;21.90;;;15.07;;
40204;SDS011;26963;42.666;23.366;2022-12-18T12:37:36;20.70;;;14.32;;
40204;SDS011;26963;42.666;23.366;2022-12-18T12:40:03;20.92;;;14.05;;
40204;SDS011;26963;42.666;23.366;2022-12-18T12:42:31;21.75;;;15.02;;
40204;SDS011;26963;42.666;23.366;2022-12-18T12:45:26;22.02;;;15.13;;
40204;SDS011;26963;42.666;23.366;2022-12-18T12:47:58;20.70;;;15.35;;
40204;SDS011;26963;42.666;23.366;2022-12-18T12:50:27;20.40;;;15.32;;
40204;SDS011;26963;42.666;23.366;2022-12-18T12:52:53;21.10;;;15.23;;
40204;SDS011;26963;42.666;23.366;2022-12-18T12:55:22;22.20;;;15.80;;
40204;SDS011;26963;42.666;23.366;2022-12-18T13:00:35;22.33;;;16.00;;
40204;SDS011;26963;42.666;23.366;2022-12-18T13:03:24;25.35;;;17.75;;
40204;SDS011;26963;42.666;23.366;2022-12-18T13:06:28;24.38;;;17.67;;
40204;SDS011;26963;42.666;23.366;2022-12-18T13:09:03;23.40;;;17.00;;
40204;SDS011;26963;42.666;23.366;2022-12-18T13:11:36;31.60;;;22.63;;
40204;SDS011;26963;42.666;23.366;2022-12-18T13:14:34;27.25;;;18.40;;
40204;SDS011;26963;42.666;23.366;2022-12-18T13:17:24;24.45;;;17.85;;
40204;SDS011;26963;42.666;23.366;2022-12-18T13:20:05;28.90;;;19.23;;
40204;SDS011;26963;42.666;23.366;2022-12-18T13:22:34;24.42;;;18.30;;
40204;SDS011;26963;42.666;23.366;2022-12-18T13:25:26;26.52;;;16.80;;
40204;SDS011;26963;42.666;23.366;2022-12-18T13:28:09;29.17;;;21.17;;
40204;SDS011;26963;42.666;23.366;2022-12-18T13:35:39;23.27;;;17.15;;
40204;SDS011;26963;42.666;23.366;2022-12-18T13:40:58;23.00;;;16.35;;
40204;SDS011;26963;42.666;23.366;2022-12-18T13:43:27;24.38;;;17.08;;
40204;SDS011;26963;42.666;23.366;2022-12-18T13:45:59;27.50;;;17.95;;
40204;SDS011;26963;42.666;23.366;2022-12-18T13:51:20;24.73;;;17.27;;
40204;SDS011;26963;42.666;23.366;2022-12-18T13:53:54;27.13;;;18.92;;
40204;SDS011;26963;42.666;23.366;2022-12-18T13:56:30;26.58;;;18.27;;
40204;SDS011;26963;42.666;23.366;2022-12-18T13:59:16;24.80;;;18.17;;
40204;SDS011;26963;42.666;23.366;2022-12-18T14:01:58;24.75;;;16.65;;
40204;SDS011;26963;42.666;23.366;2022-12-18T14:04:35;25.13;;;17.83;;
40204;SDS011;26963;42.666;23.366;2022-12-18T14:09:35;23.52;;;17.25;;
40204;SDS011;26963;42.666;23.366;2022-12-18T14:12:05;24.92;;;16.80;;
40204;SDS011;26963;42.666;23.366;2022-12-18T14:14:50;23.13;;;16.45;;
40204;SDS011;26963;42.666;23.366;2022-12-18T14:17:17;24.67;;;16.90;;
40204;SDS011;26963;42.666;23.366;2022-12-18T14:19:47;23.33;;;16.98;;
40204;SDS011;26963;42.666;23.366;2022-12-18T14:22:21;24.10;;;16.80;;
40204;SDS011;26963;42.666;23.366;2022-12-18T14:27:41;27.02;;;16.98;;
40204;SDS011;26963;42.666;23.366;2022-12-18T14:33:11;25.33;;;17.45;;
40204;SDS011;26963;42.666;23.366;2022-12-18T14:36:03;21.45;;;15.95;;
40204;SDS011;26963;42.666;23.366;2022-12-18T14:40:58;21.23;;;15.05;;
40204;SDS011;26963;42.666;23.366;2022-12-18T14:43:26;22.63;;;15.18;;
40204;SDS011;26963;42.666;23.366;2022-12-18T14:45:53;21.65;;;14.18;;
40204;SDS011;26963;42.666;23.366;2022-12-18T14:48:20;25.42;;;15.27;;
40204;SDS011;26963;42.666;23.366;2022-12-18T14:51:02;20.95;;;14.73;;
40204;SDS011;26963;42.666;23.366;2022-12-18T14:56:46;22.90;;;14.65;;
40204;SDS011;26963;42.666;23.366;2022-12-18T14:59:32;19.20;;;14.02;;
40204;SDS011;26963;42.666;23.366;2022-12-18T15:02:04;20.92;;;14.30;;
40204;SDS011;26963;42.666;23.366;2022-12-18T15:04:42;20.65;;;14.45;;
40204;SDS011;26963;42.666;23.366;2022-12-18T15:07:21;21.10;;;15.02;;
40204;SDS011;26963;42.666;23.366;2022-12-18T15:20:32;19.70;;;14.83;;
40204;SDS011;26963;42.666;23.366;2022-12-18T15:23:24;19.38;;;13.32;;
40204;SDS011;26963;42.666;23.366;2022-12-18T15:25:57;18.88;;;13.98;;
40204;SDS011;26963;42.666;23.366;2022-12-18T15:28:46;21.05;;;15.15;;
40204;SDS011;26963;42.666;23.366;2022-12-18T15:33:41;23.73;;;14.48;;
40204;SDS011;26963;42.666;23.366;2022-12-18T15:36:15;19.88;;;14.15;;
40204;SDS011;26963;42.666;23.366;2022-12-18T15:38:43;19.30;;;13.40;;
40204;SDS011;26963;42.666;23.366;2022-12-18T15:41:15;20.13;;;14.50;;
40204;SDS011;26963;42.666;23.366;2022-12-18T15:43:43;21.98;;;13.98;;
40204;SDS011;26963;42.666;23.366;2022-12-18T15:46:14;24.77;;;17.13;;
40204;SDS011;26963;42.666;23.366;2022-12-18T15:48:47;21.27;;;15.65;;
40204;SDS011;26963;42.666;23.366;2022-12-18T15:51:16;22.15;;;15.68;;
40204;SDS011;26963;42.666;23.366;2022-12-18T15:53:43;19.48;;;13.10;;
40204;SDS011;26963;42.666;23.366;2022-12-18T15:56:11;18.35;;;12.98;;
40204;SDS011;26963;42.666;23.366;2022-12-18T15:58:56;19.05;;;13.45;;
40204;SDS011;26963;42.666;23.366;2022-12-18T16:01:22;20.55;;;13.35;;
40204;SDS011;26963;42.666;23.366;2022-12-18T16:03:50;19.98;;;13.38;;
40204;SDS011;26963;42.666;23.366;2022-12-18T16:06:34;25.45;;;17.02;;
40204;SDS011;26963;42.666;23.366;2022-12-18T16:08:59;19.77;;;14.13;;
40204;SDS011;26963;42.666;23.366;2022-12-18T16:11:26;20.48;;;14.88;;
40204;SDS011;26963;42.666;23.366;2022-12-18T16:16:59;22.63;;;14.70;;
40204;SDS011;26963;42.666;23.366;2022-12-18T16:19:26;21.38;;;15.05;;
40204;SDS011;26963;42.666;23.366;2022-12-18T16:21:54;22.35;;;14.73;;
40204;SDS011;26963;42.666;23.366;2022-12-18T16:24:21;21.73;;;15.05;;
40204;SDS011;26963;42.666;23.366;2022-12-18T16:26:52;23.85;;;16.05;;
40204;SDS011;26963;42.666;23.366;2022-12-18T16:29:18;29.85;;;15.90;;
40204;SDS011;26963;42.666;23.366;2022-12-18T16:31:50;21.35;;;15.82;;
40204;SDS011;26963;42.666;23.366;2022-12-18T16:34:23;26.17;;;17.90;;
40204;SDS011;26963;42.666;23.366;2022-12-18T16:37:00;31.27;;;20.70;;
40204;SDS011;26963;42.666;23.366;2022-12-18T16:39:27;23.63;;;15.80;;
40204;SDS011;26963;42.666;23.366;2022-12-18T16:41:53;25.48;;;17.75;;